Terminal Aerodrome Forecast
Issued by NWS

Home | Current Version | Previous Version | Text Only | Print | Product List | Glossary On
Versions: 1 2 3 4 5 6 7 8 9 10 11 12 13 14 15 16
000
FTUS43 KGRR 261700
TAFAZO
TAF
KAZO 261740Z 2618/2718 03010G18KT P6SM SCT060
     FM270100 35010KT P6SM SCT060
     FM271000 34010KT P6SM BKN015
     FM271600 34012KT P6SM BKN040=

USA.gov is the U.S. government's official web portal to all federal, state and local government web resources and services.